MAS318 WMKK-ZBAD
Flight info
| Callsign | MAS318 |
|---|---|
| Flight time | 5h 32m |
| Altitude | 37000 |
| Route | PIBOS1D PIBOS R208 IGARI/K0896F370 M765 BITOD L637 TSH/K0898F270 W1 BMT/K0896F370 W12 PCA G221 BUNTA A1 LENKO/K0882F390 A1 IKELA/N0476F390 P901 IDOSI DCT CH DCT BEKOL/K0889S1160 A461 YIN/K0882S1190 A461 WXI DCT AVBOX AVBOX5L |
| Aircraft | A339/H-SADE1E2E3GHIJ3J5M1P2RWXY/LB2D1 |
Departure
| Time | 2026-04-21 17:50 |
|---|---|
| Airport | Kuala Lumpur International Airport (WMKK) |
Arrival
| Time | 2026-04-21 23:22 |
|---|---|
| Airport | Beijing Daxing International Airport (ZBAD) |
| Time | Latitude | Longitude | Altitude | Speed | Heading |
|---|---|---|---|---|---|
| 2026-04-21 17:10 | 2.74963 | 101.71336 | 83 ft | 0 kts | 236° |
| 2026-04-21 17:39 | 2.74969 | 101.71344 | 83 ft | 2 kts | 236° |
| 2026-04-21 17:39 | 2.74974 | 101.71352 | 83 ft | 2 kts | 234° |
| 2026-04-21 17:39 | 2.74984 | 101.71362 | 83 ft | 2 kts | 216° |
| 2026-04-21 17:39 | 2.74997 | 101.71371 | 83 ft | 2 kts | 203° |
| 2026-04-21 17:40 | 2.75011 | 101.71375 | 83 ft | 2 kts | 190° |
| 2026-04-21 17:40 | 2.75026 | 101.71376 | 83 ft | 2 kts | 176° |
| 2026-04-21 17:40 | 2.75041 | 101.71375 | 83 ft | 2 kts | 163° |
| 2026-04-21 17:40 | 2.75055 | 101.71368 | 83 ft | 2 kts | 149° |
| 2026-04-21 17:41 | 2.75060 | 101.71365 | 83 ft | 1 kts | 145° |
| 2026-04-21 17:41 | 2.75061 | 101.71365 | 83 ft | 0 kts | 145° |
| 2026-04-21 17:44 | 2.75052 | 101.71371 | 83 ft | 2 kts | 145° |
| 2026-04-21 17:44 | 2.75032 | 101.71392 | 83 ft | 5 kts | 115° |
| 2026-04-21 17:44 | 2.75041 | 101.71442 | 83 ft | 9 kts | 58° |
| 2026-04-21 17:45 | 2.75076 | 101.71493 | 83 ft | 8 kts | 56° |
| 2026-04-21 17:45 | 2.75110 | 101.71543 | 83 ft | 8 kts | 56° |
| 2026-04-21 17:45 | 2.75142 | 101.71594 | 83 ft | 8 kts | 62° |
| 2026-04-21 17:45 | 2.75138 | 101.71654 | 83 ft | 9 kts | 123° |
| 2026-04-21 17:46 | 2.75082 | 101.71699 | 83 ft | 11 kts | 146° |
| 2026-04-21 17:46 | 2.75015 | 101.71744 | 83 ft | 12 kts | 146° |
| 2026-04-21 17:46 | 2.74943 | 101.71793 | 83 ft | 12 kts | 146° |
| 2026-04-21 17:46 | 2.74867 | 101.71844 | 83 ft | 13 kts | 146° |
| 2026-04-21 17:47 | 2.74787 | 101.71898 | 83 ft | 14 kts | 146° |
| 2026-04-21 17:47 | 2.74717 | 101.71948 | 83 ft | 9 kts | 131° |
| 2026-04-21 17:47 | 2.74719 | 101.72015 | 83 ft | 11 kts | 59° |
| 2026-04-21 17:47 | 2.74764 | 101.72083 | 83 ft | 11 kts | 56° |
| 2026-04-21 17:48 | 2.74796 | 101.72130 | 83 ft | 12 kts | 56° |
| 2026-04-21 17:48 | 2.74843 | 101.72194 | 83 ft | 4 kts | 28° |
| 2026-04-21 17:48 | 2.74875 | 101.72184 | 83 ft | 2 kts | 326° |
| 2026-04-21 17:48 | 2.74885 | 101.72178 | 83 ft | 5 kts | 326° |
| 2026-04-21 17:49 | 2.75050 | 101.72066 | 83 ft | 60 kts | 326° |
| 2026-04-21 17:49 | 2.75574 | 101.71716 | 83 ft | 118 kts | 326° |
| 2026-04-21 17:49 | 2.76411 | 101.71154 | 84 ft | 167 kts | 326° |
| 2026-04-21 17:49 | 2.77464 | 101.70446 | 273 ft | 190 kts | 326° |
| 2026-04-21 17:50 | 2.78544 | 101.69719 | 903 ft | 186 kts | 327° |
| 2026-04-21 17:50 | 2.79603 | 101.69003 | 1548 ft | 184 kts | 328° |
| 2026-04-21 17:50 | 2.80733 | 101.68440 | 2111 ft | 181 kts | 340° |
| 2026-04-21 17:50 | 2.81941 | 101.68024 | 2489 ft | 187 kts | 346° |
| 2026-04-21 17:51 | 2.83249 | 101.67653 | 2757 ft | 202 kts | 345° |
| 2026-04-21 17:51 | 2.84635 | 101.67224 | 3021 ft | 216 kts | 343° |
| 2026-04-21 17:51 | 2.86117 | 101.66734 | 3298 ft | 232 kts | 342° |
| 2026-04-21 17:51 | 2.87720 | 101.66179 | 3592 ft | 249 kts | 341° |
| 2026-04-21 17:52 | 2.89410 | 101.65577 | 3923 ft | 265 kts | 341° |
| 2026-04-21 17:52 | 2.91217 | 101.65185 | 4472 ft | 270 kts | 3° |
| 2026-04-21 17:52 | 2.93011 | 101.65698 | 5151 ft | 272 kts | 28° |
| 2026-04-21 17:52 | 2.94652 | 101.66670 | 5810 ft | 275 kts | 30° |
| 2026-04-21 17:53 | 2.96297 | 101.67654 | 6420 ft | 279 kts | 29° |
| 2026-04-21 17:53 | 2.97987 | 101.68655 | 7045 ft | 283 kts | 29° |
| 2026-04-21 17:53 | 2.99688 | 101.69650 | 7686 ft | 285 kts | 29° |
| 2026-04-21 17:53 | 3.01407 | 101.70654 | 8309 ft | 288 kts | 29° |
| 2026-04-21 17:54 | 3.03156 | 101.71669 | 8916 ft | 290 kts | 29° |
| 2026-04-21 17:54 | 3.04908 | 101.72688 | 9507 ft | 293 kts | 29° |
| 2026-04-21 17:54 | 3.06674 | 101.73712 | 10095 ft | 296 kts | 29° |
| 2026-04-21 17:54 | 3.08501 | 101.74773 | 10504 ft | 306 kts | 29° |
| 2026-04-21 17:55 | 3.10399 | 101.75874 | 10763 ft | 321 kts | 29° |
| 2026-04-21 17:55 | 3.12369 | 101.77019 | 11013 ft | 336 kts | 29° |
| 2026-04-21 17:55 | 3.14435 | 101.78221 | 11266 ft | 350 kts | 30° |
| 2026-04-21 17:55 | 3.16472 | 101.79697 | 11511 ft | 366 kts | 40° |
| 2026-04-21 17:56 | 3.18229 | 101.81565 | 11747 ft | 381 kts | 51° |
| 2026-04-21 17:56 | 3.19788 | 101.83789 | 12096 ft | 391 kts | 55° |
| 2026-04-21 17:56 | 3.21312 | 101.86068 | 12644 ft | 395 kts | 56° |
| 2026-04-21 17:56 | 3.22829 | 101.88340 | 13217 ft | 397 kts | 56° |
| 2026-04-21 17:57 | 3.24389 | 101.90664 | 13748 ft | 401 kts | 55° |
| 2026-04-21 17:57 | 3.25946 | 101.92969 | 14267 ft | 404 kts | 55° |
| 2026-04-21 17:57 | 3.27566 | 101.95261 | 14813 ft | 406 kts | 53° |
| 2026-04-21 17:57 | 3.29260 | 101.97554 | 15369 ft | 408 kts | 53° |
| 2026-04-21 17:58 | 3.30948 | 101.99819 | 15896 ft | 410 kts | 53° |
| 2026-04-21 17:58 | 3.32664 | 102.02124 | 16417 ft | 412 kts | 53° |
| 2026-04-21 17:58 | 3.34511 | 102.04291 | 16897 ft | 414 kts | 45° |
| 2026-04-21 17:58 | 3.36662 | 102.06196 | 17377 ft | 416 kts | 37° |
| 2026-04-21 17:59 | 3.39092 | 102.07815 | 17865 ft | 418 kts | 31° |
| 2026-04-21 17:59 | 3.41614 | 102.09281 | 18325 ft | 421 kts | 30° |
| 2026-04-21 17:59 | 3.44189 | 102.10709 | 18764 ft | 424 kts | 28° |
| 2026-04-21 17:59 | 3.46822 | 102.12067 | 19208 ft | 427 kts | 27° |
| 2026-04-21 18:00 | 3.49503 | 102.13438 | 19654 ft | 430 kts | 27° |
| 2026-04-21 18:00 | 3.52172 | 102.14802 | 20057 ft | 433 kts | 27° |
| 2026-04-21 18:00 | 3.54851 | 102.16170 | 20464 ft | 436 kts | 27° |
| 2026-04-21 18:00 | 3.57552 | 102.17552 | 20873 ft | 438 kts | 27° |
| 2026-04-21 18:01 | 3.60274 | 102.18945 | 21265 ft | 440 kts | 28° |
| 2026-04-21 18:01 | 3.63012 | 102.20346 | 21657 ft | 442 kts | 28° |
| 2026-04-21 18:01 | 3.65762 | 102.21755 | 22043 ft | 444 kts | 28° |
| 2026-04-21 18:01 | 3.68559 | 102.23186 | 22435 ft | 446 kts | 28° |
| 2026-04-21 18:02 | 3.71297 | 102.24589 | 22807 ft | 448 kts | 28° |
| 2026-04-21 18:02 | 3.74108 | 102.26029 | 23175 ft | 450 kts | 28° |
| 2026-04-21 18:02 | 3.76894 | 102.27456 | 23524 ft | 452 kts | 28° |
| 2026-04-21 18:02 | 3.79697 | 102.28893 | 23873 ft | 454 kts | 28° |
| 2026-04-21 18:03 | 3.82534 | 102.30346 | 24220 ft | 456 kts | 28° |
| 2026-04-21 18:03 | 3.85366 | 102.31796 | 24552 ft | 458 kts | 28° |
| 2026-04-21 18:03 | 3.88212 | 102.33255 | 24901 ft | 460 kts | 28° |
| 2026-04-21 18:03 | 3.91070 | 102.34719 | 25241 ft | 462 kts | 28° |
| 2026-04-21 18:04 | 3.93939 | 102.36189 | 25571 ft | 464 kts | 28° |
| 2026-04-21 18:04 | 3.96818 | 102.37665 | 25895 ft | 465 kts | 28° |
| 2026-04-21 18:04 | 3.99703 | 102.39144 | 26218 ft | 467 kts | 28° |
| 2026-04-21 18:04 | 4.02605 | 102.40631 | 26525 ft | 469 kts | 28° |
| 2026-04-21 18:05 | 4.05508 | 102.42119 | 26849 ft | 470 kts | 28° |
| 2026-04-21 18:05 | 4.08429 | 102.43617 | 27150 ft | 472 kts | 28° |
| 2026-04-21 18:05 | 4.11379 | 102.45129 | 27419 ft | 474 kts | 28° |
| 2026-04-21 18:05 | 4.14330 | 102.46641 | 27716 ft | 475 kts | 28° |
| 2026-04-21 18:06 | 4.17300 | 102.48164 | 27998 ft | 477 kts | 28° |
| 2026-04-21 18:06 | 4.20268 | 102.49686 | 28270 ft | 478 kts | 28° |
| 2026-04-21 18:06 | 4.23244 | 102.51211 | 28552 ft | 480 kts | 28° |
| 2026-04-21 18:06 | 4.26217 | 102.52736 | 28968 ft | 478 kts | 28° |
| 2026-04-21 18:07 | 4.29176 | 102.54254 | 29411 ft | 476 kts | 28° |
| 2026-04-21 18:07 | 4.32134 | 102.55772 | 29787 ft | 475 kts | 28° |
| 2026-04-21 18:07 | 4.35088 | 102.57285 | 30129 ft | 475 kts | 28° |
| 2026-04-21 18:07 | 4.38033 | 102.58796 | 30475 ft | 475 kts | 28° |
| 2026-04-21 18:08 | 4.40978 | 102.60304 | 30818 ft | 475 kts | 28° |
| 2026-04-21 18:08 | 4.43920 | 102.61811 | 31173 ft | 474 kts | 28° |
| 2026-04-21 18:08 | 4.46861 | 102.63319 | 31515 ft | 474 kts | 27° |
| 2026-04-21 18:08 | 4.49769 | 102.64807 | 31819 ft | 475 kts | 27° |
| 2026-04-21 18:09 | 4.52742 | 102.66328 | 32149 ft | 475 kts | 27° |
| 2026-04-21 18:09 | 4.55683 | 102.67834 | 32496 ft | 475 kts | 27° |
| 2026-04-21 18:09 | 4.58637 | 102.69348 | 32898 ft | 474 kts | 27° |
| 2026-04-21 18:09 | 4.61575 | 102.70847 | 33323 ft | 472 kts | 27° |
| 2026-04-21 18:10 | 4.64502 | 102.72305 | 33755 ft | 471 kts | 27° |
| 2026-04-21 18:10 | 4.67432 | 102.73753 | 34182 ft | 470 kts | 27° |
| 2026-04-21 18:10 | 4.70357 | 102.75195 | 34572 ft | 469 kts | 27° |
| 2026-04-21 18:10 | 4.73293 | 102.76643 | 34956 ft | 468 kts | 27° |
| 2026-04-21 18:11 | 4.76238 | 102.78096 | 35281 ft | 468 kts | 27° |
| 2026-04-21 18:11 | 4.79169 | 102.79542 | 35534 ft | 469 kts | 27° |
| 2026-04-21 18:11 | 4.82126 | 102.81003 | 35753 ft | 471 kts | 27° |
| 2026-04-21 18:11 | 4.85071 | 102.82460 | 35979 ft | 473 kts | 27° |
| 2026-04-21 18:12 | 4.88016 | 102.83925 | 36190 ft | 474 kts | 27° |
| 2026-04-21 18:12 | 4.90974 | 102.85421 | 36403 ft | 475 kts | 27° |
| 2026-04-21 18:12 | 4.93944 | 102.86931 | 36622 ft | 476 kts | 27° |
| 2026-04-21 18:12 | 4.96869 | 102.88417 | 36824 ft | 477 kts | 27° |
| 2026-04-21 18:13 | 5.02860 | 102.91451 | 36884 ft | 478 kts | 27° |
| 2026-04-21 18:13 | 5.08826 | 102.94466 | 36886 ft | 478 kts | 27° |
| 2026-04-21 18:14 | 5.17734 | 102.98966 | 36880 ft | 478 kts | 27° |
| 2026-04-21 18:15 | 5.23687 | 103.01971 | 36878 ft | 478 kts | 27° |
| 2026-04-21 18:15 | 5.29675 | 103.04991 | 36883 ft | 478 kts | 27° |
| 2026-04-21 18:16 | 5.35616 | 103.07900 | 36882 ft | 477 kts | 25° |
| 2026-04-21 18:16 | 5.41821 | 103.10332 | 36873 ft | 477 kts | 21° |
| 2026-04-21 18:17 | 5.48080 | 103.12585 | 36873 ft | 476 kts | 21° |
| 2026-04-21 18:17 | 5.54327 | 103.14829 | 36871 ft | 475 kts | 21° |
| 2026-04-21 18:18 | 5.60529 | 103.17059 | 36868 ft | 475 kts | 21° |
| 2026-04-21 18:18 | 5.66769 | 103.19301 | 36863 ft | 475 kts | 21° |
| 2026-04-21 18:19 | 5.72988 | 103.21539 | 36859 ft | 474 kts | 21° |
| 2026-04-21 18:19 | 5.79267 | 103.23606 | 36857 ft | 474 kts | 18° |
| 2026-04-21 18:20 | 5.85596 | 103.25549 | 36856 ft | 473 kts | 18° |
| 2026-04-21 18:20 | 5.91919 | 103.27479 | 36857 ft | 472 kts | 18° |
| 2026-04-21 18:21 | 5.98203 | 103.29396 | 36858 ft | 473 kts | 18° |
| 2026-04-21 18:21 | 6.04527 | 103.31325 | 36858 ft | 473 kts | 18° |
| 2026-04-21 18:22 | 6.10809 | 103.33242 | 36857 ft | 472 kts | 18° |
| 2026-04-21 18:22 | 6.17082 | 103.35159 | 36858 ft | 471 kts | 18° |
| 2026-04-21 18:23 | 6.23373 | 103.37080 | 36857 ft | 471 kts | 18° |
| 2026-04-21 18:23 | 6.29634 | 103.38992 | 36857 ft | 470 kts | 18° |
| 2026-04-21 18:24 | 6.35909 | 103.40907 | 36857 ft | 470 kts | 18° |
| 2026-04-21 18:24 | 6.42185 | 103.42825 | 36857 ft | 470 kts | 18° |
| 2026-04-21 18:25 | 6.48465 | 103.44743 | 36858 ft | 470 kts | 18° |
| 2026-04-21 18:25 | 6.54726 | 103.46657 | 36858 ft | 469 kts | 18° |
| 2026-04-21 18:26 | 6.61015 | 103.48579 | 36857 ft | 469 kts | 18° |
| 2026-04-21 18:26 | 6.67267 | 103.50487 | 36857 ft | 469 kts | 18° |
| 2026-04-21 18:27 | 6.73498 | 103.52386 | 36858 ft | 468 kts | 18° |
| 2026-04-21 18:27 | 6.79768 | 103.54298 | 36858 ft | 468 kts | 18° |
| 2026-04-21 18:28 | 6.85922 | 103.56391 | 36857 ft | 467 kts | 25° |
| 2026-04-21 18:28 | 6.91546 | 103.59654 | 36857 ft | 465 kts | 37° |
| 2026-04-21 18:29 | 6.96322 | 103.64023 | 36857 ft | 464 kts | 49° |
| 2026-04-21 18:29 | 7.00087 | 103.69286 | 36859 ft | 464 kts | 58° |
| 2026-04-21 18:30 | 7.03442 | 103.74853 | 36857 ft | 464 kts | 58° |
| 2026-04-21 18:30 | 7.06762 | 103.80400 | 36856 ft | 464 kts | 58° |
| 2026-04-21 18:31 | 7.10096 | 103.85957 | 36856 ft | 464 kts | 58° |
| 2026-04-21 18:31 | 7.13424 | 103.91499 | 36856 ft | 464 kts | 58° |
| 2026-04-21 18:32 | 7.16750 | 103.97032 | 36856 ft | 464 kts | 58° |
| 2026-04-21 18:32 | 7.20104 | 104.02615 | 36850 ft | 464 kts | 58° |
| 2026-04-21 18:33 | 7.23807 | 104.07935 | 36841 ft | 464 kts | 51° |
| 2026-04-21 18:33 | 7.28113 | 104.12756 | 36836 ft | 463 kts | 44° |
| 2026-04-21 18:34 | 7.32949 | 104.17003 | 36837 ft | 464 kts | 38° |
| 2026-04-21 18:34 | 7.38220 | 104.20812 | 36843 ft | 464 kts | 36° |
| 2026-04-21 18:35 | 7.42620 | 104.23917 | 36848 ft | 464 kts | 35° |
| 2026-04-21 18:35 | 7.48789 | 104.28275 | 36853 ft | 464 kts | 36° |
| 2026-04-21 18:36 | 7.54090 | 104.32024 | 36855 ft | 464 kts | 36° |
| 2026-04-21 18:36 | 7.59361 | 104.35752 | 36856 ft | 463 kts | 36° |
| 2026-04-21 18:37 | 7.64633 | 104.39484 | 36856 ft | 463 kts | 36° |
| 2026-04-21 18:37 | 7.69919 | 104.43227 | 36856 ft | 463 kts | 36° |
| 2026-04-21 18:38 | 7.75206 | 104.46973 | 36856 ft | 463 kts | 35° |
| 2026-04-21 18:38 | 7.80464 | 104.50698 | 36856 ft | 463 kts | 35° |
| 2026-04-21 18:39 | 7.85739 | 104.54436 | 36856 ft | 463 kts | 35° |
| 2026-04-21 18:39 | 7.91031 | 104.58187 | 36856 ft | 463 kts | 35° |
| 2026-04-21 18:40 | 7.96286 | 104.61914 | 36856 ft | 462 kts | 35° |
| 2026-04-21 18:40 | 8.00675 | 104.65028 | 36857 ft | 461 kts | 35° |
| 2026-04-21 18:41 | 8.06790 | 104.69368 | 36856 ft | 462 kts | 35° |
| 2026-04-21 18:41 | 8.12049 | 104.73099 | 36857 ft | 462 kts | 35° |
| 2026-04-21 18:42 | 8.17308 | 104.76833 | 36856 ft | 462 kts | 35° |
| 2026-04-21 18:42 | 8.22589 | 104.80582 | 36856 ft | 462 kts | 35° |
| 2026-04-21 18:43 | 8.27845 | 104.84315 | 36856 ft | 462 kts | 35° |
| 2026-04-21 18:43 | 8.33114 | 104.88058 | 36856 ft | 462 kts | 35° |
| 2026-04-21 18:44 | 8.38381 | 104.91799 | 36856 ft | 462 kts | 35° |
| 2026-04-21 18:44 | 8.43620 | 104.95518 | 36856 ft | 462 kts | 35° |
| 2026-04-21 18:45 | 8.48902 | 104.99271 | 36856 ft | 462 kts | 35° |
| 2026-04-21 18:45 | 8.54169 | 105.03003 | 36856 ft | 462 kts | 35° |
| 2026-04-21 18:46 | 8.59416 | 105.06700 | 36856 ft | 462 kts | 35° |
| 2026-04-21 18:46 | 8.64713 | 105.10427 | 36857 ft | 461 kts | 35° |
| 2026-04-21 18:47 | 8.69964 | 105.14121 | 36856 ft | 460 kts | 34° |
| 2026-04-21 18:47 | 8.75211 | 105.17813 | 36854 ft | 460 kts | 34° |
| 2026-04-21 18:48 | 8.80477 | 105.21519 | 36850 ft | 459 kts | 34° |
| 2026-04-21 18:48 | 8.85715 | 105.25206 | 36845 ft | 459 kts | 34° |
| 2026-04-21 18:49 | 8.90998 | 105.28927 | 36839 ft | 460 kts | 34° |
| 2026-04-21 18:49 | 8.95366 | 105.32004 | 36837 ft | 460 kts | 35° |
| 2026-04-21 18:50 | 9.01492 | 105.36323 | 36837 ft | 459 kts | 34° |
| 2026-04-21 18:50 | 9.06740 | 105.40023 | 36839 ft | 460 kts | 34° |
| 2026-04-21 18:51 | 9.12009 | 105.43738 | 36843 ft | 460 kts | 34° |
| 2026-04-21 18:51 | 9.17295 | 105.47467 | 36848 ft | 460 kts | 35° |
| 2026-04-21 18:52 | 9.22548 | 105.51175 | 36852 ft | 461 kts | 35° |
| 2026-04-21 18:52 | 9.27781 | 105.54870 | 36854 ft | 460 kts | 35° |
| 2026-04-21 18:53 | 9.33070 | 105.58606 | 36855 ft | 461 kts | 34° |
| 2026-04-21 18:53 | 9.38347 | 105.62333 | 36855 ft | 461 kts | 34° |
| 2026-04-21 18:54 | 9.43605 | 105.66049 | 36857 ft | 461 kts | 35° |
| 2026-04-21 18:54 | 9.48879 | 105.69777 | 36858 ft | 460 kts | 35° |
| 2026-04-21 18:55 | 9.53246 | 105.72865 | 36858 ft | 461 kts | 35° |
| 2026-04-21 18:55 | 9.59413 | 105.77225 | 36857 ft | 461 kts | 35° |
| 2026-04-21 18:56 | 9.64668 | 105.80943 | 36857 ft | 462 kts | 35° |
| 2026-04-21 18:56 | 9.69955 | 105.84681 | 36857 ft | 462 kts | 35° |
| 2026-04-21 18:57 | 9.75229 | 105.88411 | 36857 ft | 462 kts | 34° |
| 2026-04-21 18:57 | 9.80497 | 105.92145 | 36858 ft | 462 kts | 35° |
| 2026-04-21 18:58 | 9.85780 | 105.95901 | 36858 ft | 463 kts | 35° |
| 2026-04-21 18:58 | 9.91038 | 105.99635 | 36858 ft | 463 kts | 35° |
| 2026-04-21 18:59 | 9.96341 | 106.03396 | 36858 ft | 463 kts | 35° |
| 2026-04-21 18:59 | 10.01599 | 106.07125 | 36854 ft | 463 kts | 35° |
| 2026-04-21 19:00 | 10.06890 | 106.10877 | 36853 ft | 463 kts | 35° |
| 2026-04-21 19:00 | 10.12188 | 106.14634 | 36854 ft | 463 kts | 35° |
| 2026-04-21 19:01 | 10.17486 | 106.18390 | 36856 ft | 464 kts | 35° |
| 2026-04-21 19:01 | 10.22773 | 106.22138 | 36852 ft | 464 kts | 35° |
| 2026-04-21 19:02 | 10.28055 | 106.25903 | 36855 ft | 463 kts | 36° |
| 2026-04-21 19:02 | 10.33289 | 106.29726 | 36852 ft | 462 kts | 36° |
| 2026-04-21 19:03 | 10.38514 | 106.33544 | 36852 ft | 462 kts | 36° |
| 2026-04-21 19:03 | 10.43740 | 106.37352 | 36848 ft | 463 kts | 36° |
| 2026-04-21 19:04 | 10.48970 | 106.41160 | 36843 ft | 462 kts | 36° |
| 2026-04-21 19:04 | 10.54194 | 106.44963 | 36845 ft | 463 kts | 36° |
| 2026-04-21 19:05 | 10.59435 | 106.48779 | 36843 ft | 463 kts | 36° |
| 2026-04-21 19:05 | 10.64683 | 106.52598 | 36843 ft | 463 kts | 36° |
| 2026-04-21 19:06 | 10.69938 | 106.56424 | 36840 ft | 462 kts | 36° |
| 2026-04-21 19:06 | 10.75051 | 106.60369 | 36840 ft | 463 kts | 42° |
| 2026-04-21 19:07 | 10.79361 | 106.65260 | 36846 ft | 464 kts | 54° |
| 2026-04-21 19:07 | 10.82561 | 106.70979 | 36854 ft | 466 kts | 66° |
| 2026-04-21 19:08 | 10.84518 | 106.77246 | 36859 ft | 468 kts | 75° |
| 2026-04-21 19:08 | 10.85977 | 106.83693 | 36848 ft | 467 kts | 76° |
| 2026-04-21 19:09 | 10.87414 | 106.90107 | 36846 ft | 467 kts | 76° |
| 2026-04-21 19:09 | 10.88853 | 106.96528 | 36843 ft | 467 kts | 76° |
| 2026-04-21 19:10 | 10.90309 | 107.02984 | 36840 ft | 467 kts | 76° |
| 2026-04-21 19:10 | 10.91817 | 107.09384 | 36841 ft | 466 kts | 71° |
| 2026-04-21 19:11 | 10.94498 | 107.15346 | 36847 ft | 464 kts | 57° |
| 2026-04-21 19:11 | 10.98560 | 107.20380 | 36853 ft | 462 kts | 43° |
| 2026-04-21 19:12 | 11.03792 | 107.24243 | 36855 ft | 463 kts | 30° |
| 2026-04-21 19:12 | 11.09458 | 107.27302 | 36856 ft | 463 kts | 28° |
| 2026-04-21 19:13 | 11.15190 | 107.30348 | 36858 ft | 462 kts | 28° |
| 2026-04-21 19:13 | 11.20857 | 107.33396 | 36862 ft | 462 kts | 28° |
| 2026-04-21 19:14 | 11.26543 | 107.36476 | 36868 ft | 462 kts | 28° |
| 2026-04-21 19:14 | 11.32258 | 107.39565 | 36874 ft | 462 kts | 28° |
| 2026-04-21 19:15 | 11.37921 | 107.42620 | 36877 ft | 462 kts | 28° |
| 2026-04-21 19:15 | 11.43610 | 107.45689 | 36879 ft | 462 kts | 28° |
| 2026-04-21 19:16 | 11.49317 | 107.48766 | 36884 ft | 462 kts | 28° |
| 2026-04-21 19:16 | 11.54999 | 107.51833 | 36890 ft | 462 kts | 28° |
| 2026-04-21 19:17 | 11.63549 | 107.56449 | 36921 ft | 461 kts | 28° |
| 2026-04-21 19:17 | 11.69229 | 107.59518 | 36941 ft | 461 kts | 28° |
| 2026-04-21 19:18 | 11.74882 | 107.62573 | 36963 ft | 461 kts | 28° |
| 2026-04-21 19:18 | 11.80600 | 107.65665 | 36979 ft | 461 kts | 28° |
| 2026-04-21 19:19 | 11.86278 | 107.68735 | 36984 ft | 462 kts | 28° |
| 2026-04-21 19:19 | 11.91950 | 107.71806 | 36983 ft | 461 kts | 28° |
| 2026-04-21 19:20 | 11.97638 | 107.74886 | 36977 ft | 461 kts | 28° |
| 2026-04-21 19:20 | 12.03285 | 107.77946 | 36976 ft | 461 kts | 28° |
| 2026-04-21 19:21 | 12.08979 | 107.81031 | 36987 ft | 461 kts | 28° |
| 2026-04-21 19:21 | 12.14667 | 107.84115 | 37000 ft | 461 kts | 28° |
| 2026-04-21 19:22 | 12.20334 | 107.87189 | 37006 ft | 461 kts | 28° |
| 2026-04-21 19:22 | 12.25993 | 107.90260 | 37006 ft | 460 kts | 28° |
| 2026-04-21 19:23 | 12.31653 | 107.93333 | 36983 ft | 460 kts | 28° |
| 2026-04-21 19:23 | 12.37322 | 107.96411 | 36963 ft | 459 kts | 28° |
| 2026-04-21 19:24 | 12.42948 | 107.99467 | 36940 ft | 458 kts | 28° |
| 2026-04-21 19:24 | 12.48616 | 108.02544 | 36933 ft | 459 kts | 28° |
| 2026-04-21 19:25 | 12.54244 | 108.05601 | 36921 ft | 459 kts | 28° |
| 2026-04-21 19:25 | 12.59883 | 108.08663 | 36921 ft | 458 kts | 28° |
| 2026-04-21 19:26 | 12.65485 | 108.11772 | 36917 ft | 457 kts | 30° |
| 2026-04-21 19:26 | 12.70845 | 108.15342 | 36924 ft | 457 kts | 34° |
| 2026-04-21 19:27 | 12.76056 | 108.19040 | 36934 ft | 458 kts | 34° |
| 2026-04-21 19:27 | 12.81301 | 108.22764 | 36942 ft | 458 kts | 34° |
| 2026-04-21 19:28 | 12.86533 | 108.26478 | 36949 ft | 458 kts | 34° |
| 2026-04-21 19:28 | 12.91775 | 108.30202 | 36947 ft | 457 kts | 34° |
| 2026-04-21 19:29 | 12.97008 | 108.33918 | 36952 ft | 457 kts | 34° |
| 2026-04-21 19:29 | 13.02243 | 108.37637 | 36953 ft | 458 kts | 34° |
| 2026-04-21 19:30 | 13.07489 | 108.41365 | 36944 ft | 457 kts | 34° |
| 2026-04-21 19:30 | 13.12721 | 108.45084 | 36937 ft | 457 kts | 34° |
| 2026-04-21 19:31 | 13.17983 | 108.48826 | 36923 ft | 458 kts | 34° |
| 2026-04-21 19:31 | 13.23195 | 108.52531 | 36910 ft | 457 kts | 34° |
| 2026-04-21 19:32 | 13.28442 | 108.56262 | 36902 ft | 457 kts | 34° |
| 2026-04-21 19:32 | 13.33657 | 108.59983 | 36899 ft | 457 kts | 34° |
| 2026-04-21 19:33 | 13.38887 | 108.63724 | 36908 ft | 458 kts | 34° |
| 2026-04-21 19:33 | 13.44111 | 108.67453 | 36921 ft | 457 kts | 34° |
| 2026-04-21 19:34 | 13.49353 | 108.71191 | 36946 ft | 457 kts | 34° |
| 2026-04-21 19:34 | 13.54554 | 108.74902 | 36970 ft | 457 kts | 34° |
| 2026-04-21 19:35 | 13.62404 | 108.80502 | 36947 ft | 457 kts | 34° |
| 2026-04-21 19:36 | 13.67623 | 108.84226 | 36929 ft | 457 kts | 34° |
| 2026-04-21 19:36 | 13.72859 | 108.87964 | 36914 ft | 457 kts | 34° |
| 2026-04-21 19:37 | 13.78081 | 108.91692 | 36900 ft | 457 kts | 33° |
| 2026-04-21 19:37 | 13.83295 | 108.95414 | 36883 ft | 456 kts | 33° |
| 2026-04-21 19:38 | 13.88546 | 108.99088 | 36867 ft | 456 kts | 31° |
| 2026-04-21 19:38 | 13.94139 | 109.02124 | 36852 ft | 455 kts | 23° |
| 2026-04-21 19:39 | 14.00104 | 109.04324 | 36841 ft | 454 kts | 15° |
| 2026-04-21 19:39 | 14.06278 | 109.05630 | 36838 ft | 454 kts | 8° |
| 2026-04-21 19:40 | 14.12574 | 109.06424 | 36840 ft | 454 kts | 7° |
| 2026-04-21 19:40 | 14.18885 | 109.07185 | 36843 ft | 453 kts | 7° |
| 2026-04-21 19:41 | 14.25142 | 109.07942 | 36838 ft | 453 kts | 7° |
| 2026-04-21 19:41 | 14.31433 | 109.08704 | 36841 ft | 454 kts | 7° |
| 2026-04-21 19:42 | 14.37729 | 109.09470 | 36844 ft | 454 kts | 7° |
| 2026-04-21 19:42 | 14.43984 | 109.10230 | 36847 ft | 453 kts | 7° |
| 2026-04-21 19:43 | 14.50256 | 109.10994 | 36844 ft | 453 kts | 7° |
| 2026-04-21 19:43 | 14.56529 | 109.11758 | 36839 ft | 453 kts | 7° |
| 2026-04-21 19:44 | 14.62843 | 109.12526 | 36835 ft | 453 kts | 7° |
| 2026-04-21 19:44 | 14.69089 | 109.13287 | 36832 ft | 453 kts | 7° |
| 2026-04-21 19:45 | 14.75337 | 109.14048 | 36825 ft | 452 kts | 7° |
| 2026-04-21 19:45 | 14.81593 | 109.14812 | 36823 ft | 453 kts | 7° |
| 2026-04-21 19:46 | 14.87895 | 109.15581 | 36819 ft | 453 kts | 7° |
| 2026-04-21 19:46 | 14.94138 | 109.16343 | 36820 ft | 452 kts | 7° |
| 2026-04-21 19:47 | 15.00400 | 109.17109 | 36819 ft | 452 kts | 7° |
| 2026-04-21 19:47 | 15.06664 | 109.17874 | 36810 ft | 452 kts | 7° |
| 2026-04-21 19:48 | 15.12954 | 109.18642 | 36802 ft | 452 kts | 7° |
| 2026-04-21 19:48 | 15.19196 | 109.19405 | 36798 ft | 452 kts | 7° |
| 2026-04-21 19:49 | 15.25439 | 109.20169 | 36799 ft | 452 kts | 7° |
| 2026-04-21 19:49 | 15.31719 | 109.20937 | 36800 ft | 452 kts | 6° |
| 2026-04-21 19:50 | 15.36903 | 109.21570 | 36799 ft | 452 kts | 6° |
| 2026-04-21 19:50 | 15.44227 | 109.22463 | 36799 ft | 452 kts | 6° |
| 2026-04-21 19:51 | 15.50482 | 109.23224 | 36798 ft | 452 kts | 6° |
| 2026-04-21 19:51 | 15.56738 | 109.23983 | 36800 ft | 452 kts | 6° |
| 2026-04-21 19:52 | 15.62979 | 109.24753 | 36801 ft | 452 kts | 7° |
| 2026-04-21 19:52 | 15.69237 | 109.25539 | 36800 ft | 452 kts | 6° |
| 2026-04-21 19:53 | 15.75490 | 109.26314 | 36800 ft | 452 kts | 6° |
| 2026-04-21 19:53 | 15.81753 | 109.27084 | 36801 ft | 452 kts | 6° |
| 2026-04-21 19:54 | 15.88024 | 109.27853 | 36802 ft | 452 kts | 6° |
| 2026-04-21 19:54 | 15.94262 | 109.28617 | 36802 ft | 452 kts | 6° |
| 2026-04-21 19:55 | 16.00532 | 109.29385 | 36802 ft | 452 kts | 6° |
| 2026-04-21 19:55 | 16.06786 | 109.30154 | 36806 ft | 452 kts | 6° |
| 2026-04-21 19:56 | 16.13067 | 109.30926 | 36813 ft | 452 kts | 6° |
| 2026-04-21 19:56 | 16.19305 | 109.31691 | 36814 ft | 452 kts | 6° |
| 2026-04-21 19:57 | 16.25566 | 109.32459 | 36812 ft | 453 kts | 6° |
| 2026-04-21 19:57 | 16.31839 | 109.33230 | 36808 ft | 453 kts | 6° |
| 2026-04-21 19:58 | 16.38095 | 109.33997 | 36802 ft | 453 kts | 6° |
| 2026-04-21 19:58 | 16.44384 | 109.34770 | 36800 ft | 453 kts | 6° |
| 2026-04-21 19:59 | 16.50661 | 109.35539 | 36800 ft | 453 kts | 6° |
| 2026-04-21 19:59 | 16.56933 | 109.36309 | 36801 ft | 453 kts | 6° |
| 2026-04-21 20:00 | 16.63209 | 109.37075 | 36803 ft | 453 kts | 6° |
| 2026-04-21 20:00 | 16.69499 | 109.37844 | 36802 ft | 454 kts | 6° |
| 2026-04-21 20:01 | 16.75703 | 109.38936 | 36802 ft | 456 kts | 14° |
| 2026-04-21 20:01 | 16.81582 | 109.41569 | 36804 ft | 460 kts | 28° |
| 2026-04-21 20:02 | 16.86666 | 109.45656 | 36802 ft | 466 kts | 43° |
| 2026-04-21 20:02 | 16.90705 | 109.50960 | 36800 ft | 470 kts | 52° |
| 2026-04-21 20:03 | 16.94358 | 109.56612 | 36796 ft | 471 kts | 53° |
| 2026-04-21 20:03 | 16.97995 | 109.62271 | 36802 ft | 471 kts | 53° |
| 2026-04-21 20:04 | 17.01665 | 109.67968 | 36794 ft | 471 kts | 53° |
| 2026-04-21 20:04 | 17.05326 | 109.73647 | 36798 ft | 472 kts | 53° |
| 2026-04-21 20:05 | 17.08983 | 109.79322 | 36803 ft | 472 kts | 53° |
| 2026-04-21 20:05 | 17.12654 | 109.85020 | 36813 ft | 473 kts | 53° |
| 2026-04-21 20:06 | 17.16311 | 109.90699 | 36815 ft | 473 kts | 53° |
| 2026-04-21 20:06 | 17.19963 | 109.96378 | 36817 ft | 473 kts | 53° |
| 2026-04-21 20:07 | 17.23647 | 110.02113 | 36819 ft | 473 kts | 53° |
| 2026-04-21 20:07 | 17.27303 | 110.07806 | 36821 ft | 473 kts | 53° |
| 2026-04-21 20:08 | 17.30987 | 110.13543 | 36823 ft | 474 kts | 53° |
| 2026-04-21 20:08 | 17.34641 | 110.19235 | 36820 ft | 475 kts | 53° |
| 2026-04-21 20:09 | 17.38319 | 110.24963 | 36819 ft | 475 kts | 53° |
| 2026-04-21 20:09 | 17.42000 | 110.30713 | 36818 ft | 475 kts | 53° |
| 2026-04-21 20:10 | 17.45689 | 110.36432 | 36819 ft | 475 kts | 53° |
| 2026-04-21 20:10 | 17.49231 | 110.41898 | 36819 ft | 475 kts | 53° |
| 2026-04-21 20:11 | 17.52915 | 110.47580 | 36816 ft | 475 kts | 53° |
| 2026-04-21 20:11 | 17.56637 | 110.53326 | 36815 ft | 476 kts | 53° |
| 2026-04-21 20:12 | 17.60342 | 110.59049 | 36815 ft | 476 kts | 53° |
| 2026-04-21 20:12 | 17.64068 | 110.64808 | 36815 ft | 477 kts | 53° |
| 2026-04-21 20:13 | 17.67783 | 110.70554 | 36815 ft | 477 kts | 53° |
| 2026-04-21 20:13 | 17.71493 | 110.76299 | 36815 ft | 477 kts | 53° |
| 2026-04-21 20:14 | 17.75204 | 110.82048 | 36815 ft | 477 kts | 53° |
| 2026-04-21 20:14 | 17.78941 | 110.87844 | 36815 ft | 478 kts | 53° |
| 2026-04-21 20:15 | 17.82650 | 110.93603 | 36815 ft | 478 kts | 53° |
| 2026-04-21 20:15 | 17.86356 | 110.99362 | 36815 ft | 478 kts | 53° |
| 2026-04-21 20:16 | 17.90085 | 111.05160 | 36815 ft | 478 kts | 53° |
| 2026-04-21 20:16 | 17.93786 | 111.10919 | 36815 ft | 479 kts | 53° |
| 2026-04-21 20:17 | 17.97516 | 111.16728 | 36816 ft | 480 kts | 53° |
| 2026-04-21 20:17 | 18.01238 | 111.22536 | 36821 ft | 480 kts | 53° |
| 2026-04-21 20:18 | 18.04979 | 111.28373 | 36831 ft | 480 kts | 53° |
| 2026-04-21 20:18 | 18.08690 | 111.34168 | 36834 ft | 481 kts | 53° |
| 2026-04-21 20:19 | 18.12404 | 111.39976 | 36835 ft | 481 kts | 53° |
| 2026-04-21 20:19 | 18.16138 | 111.45817 | 36835 ft | 481 kts | 53° |
| 2026-04-21 20:20 | 18.19863 | 111.51648 | 36832 ft | 481 kts | 53° |
| 2026-04-21 20:20 | 18.23579 | 111.57476 | 36832 ft | 481 kts | 53° |
| 2026-04-21 20:21 | 18.27317 | 111.63339 | 36834 ft | 481 kts | 53° |
| 2026-04-21 20:21 | 18.31029 | 111.69167 | 36832 ft | 481 kts | 53° |
| 2026-04-21 20:22 | 18.34746 | 111.75006 | 36833 ft | 481 kts | 53° |
| 2026-04-21 20:22 | 18.40333 | 111.83793 | 36833 ft | 481 kts | 54° |
| 2026-04-21 20:23 | 18.44035 | 111.89623 | 36832 ft | 481 kts | 54° |
| 2026-04-21 20:23 | 18.47757 | 111.95489 | 36828 ft | 481 kts | 53° |
| 2026-04-21 20:24 | 18.51453 | 112.01311 | 36826 ft | 481 kts | 54° |
| 2026-04-21 20:24 | 18.55174 | 112.07174 | 36826 ft | 481 kts | 54° |
| 2026-04-21 20:25 | 18.58891 | 112.13044 | 36824 ft | 483 kts | 54° |
| 2026-04-21 20:25 | 18.62747 | 112.18817 | 36821 ft | 482 kts | 49° |
| 2026-04-21 20:26 | 18.67135 | 112.24127 | 36820 ft | 480 kts | 43° |
| 2026-04-21 20:26 | 18.72056 | 112.28883 | 36819 ft | 478 kts | 37° |
| 2026-04-21 20:27 | 18.77352 | 112.33048 | 36823 ft | 478 kts | 33° |
| 2026-04-21 20:27 | 18.82781 | 112.37096 | 36822 ft | 478 kts | 33° |
| 2026-04-21 20:28 | 18.88204 | 112.41152 | 36823 ft | 478 kts | 33° |
| 2026-04-21 20:28 | 18.93659 | 112.45257 | 36825 ft | 479 kts | 33° |
| 2026-04-21 20:29 | 18.99167 | 112.49139 | 36823 ft | 478 kts | 28° |
| 2026-04-21 20:29 | 19.05061 | 112.52432 | 36819 ft | 476 kts | 22° |
| 2026-04-21 20:30 | 19.11104 | 112.55274 | 36816 ft | 476 kts | 21° |
| 2026-04-21 20:30 | 19.17160 | 112.58084 | 36814 ft | 476 kts | 21° |
| 2026-04-21 20:31 | 19.23237 | 112.60909 | 36815 ft | 476 kts | 21° |
| 2026-04-21 20:31 | 19.29311 | 112.63739 | 36818 ft | 475 kts | 21° |
| 2026-04-21 20:32 | 19.35346 | 112.66554 | 36821 ft | 475 kts | 21° |
| 2026-04-21 20:32 | 19.41407 | 112.69384 | 36825 ft | 475 kts | 21° |
| 2026-04-21 20:33 | 19.47440 | 112.72204 | 36826 ft | 475 kts | 21° |
| 2026-04-21 20:33 | 19.53526 | 112.75050 | 36830 ft | 475 kts | 21° |
| 2026-04-21 20:34 | 19.59571 | 112.77881 | 36832 ft | 474 kts | 21° |
| 2026-04-21 20:34 | 19.65603 | 112.80707 | 36833 ft | 474 kts | 21° |
| 2026-04-21 20:35 | 19.71638 | 112.83536 | 36834 ft | 474 kts | 21° |
| 2026-04-21 20:35 | 19.77664 | 112.86363 | 36835 ft | 473 kts | 21° |
| 2026-04-21 20:36 | 19.83682 | 112.89189 | 36835 ft | 473 kts | 21° |
| 2026-04-21 20:36 | 19.89685 | 112.92011 | 36835 ft | 472 kts | 22° |
| 2026-04-21 20:37 | 19.95688 | 112.94835 | 36834 ft | 472 kts | 22° |
| 2026-04-21 20:37 | 20.01672 | 112.97653 | 36835 ft | 471 kts | 21° |
| 2026-04-21 20:38 | 20.07692 | 113.00491 | 36836 ft | 471 kts | 22° |
| 2026-04-21 20:38 | 20.13691 | 113.03320 | 36839 ft | 471 kts | 21° |
| 2026-04-21 20:39 | 20.19689 | 113.06152 | 36835 ft | 471 kts | 21° |
| 2026-04-21 20:39 | 20.25681 | 113.08982 | 36834 ft | 472 kts | 21° |
| 2026-04-21 20:40 | 20.31674 | 113.11815 | 36838 ft | 472 kts | 21° |
| 2026-04-21 20:40 | 20.37692 | 113.14662 | 36832 ft | 472 kts | 22° |
| 2026-04-21 20:41 | 20.43700 | 113.17509 | 36830 ft | 471 kts | 21° |
| 2026-04-21 20:41 | 20.49678 | 113.20342 | 36830 ft | 472 kts | 21° |
| 2026-04-21 20:42 | 20.55701 | 113.23200 | 36831 ft | 472 kts | 21° |
| 2026-04-21 20:42 | 20.61689 | 113.26045 | 36834 ft | 472 kts | 21° |
| 2026-04-21 20:43 | 20.67719 | 113.28909 | 36824 ft | 473 kts | 21° |
| 2026-04-21 20:43 | 20.73729 | 113.31767 | 36832 ft | 473 kts | 21° |
| 2026-04-21 20:44 | 20.79704 | 113.34612 | 36826 ft | 472 kts | 21° |
| 2026-04-21 20:44 | 20.85757 | 113.37496 | 36826 ft | 473 kts | 21° |
| 2026-04-21 20:45 | 20.91743 | 113.40350 | 36824 ft | 473 kts | 21° |
| 2026-04-21 20:45 | 20.97765 | 113.43226 | 36829 ft | 472 kts | 21° |
| 2026-04-21 20:46 | 21.03772 | 113.46095 | 36826 ft | 472 kts | 21° |
| 2026-04-21 20:46 | 21.09739 | 113.48950 | 36825 ft | 472 kts | 21° |
| 2026-04-21 20:47 | 21.15777 | 113.51839 | 36828 ft | 473 kts | 21° |
| 2026-04-21 20:47 | 21.21805 | 113.54727 | 36832 ft | 473 kts | 21° |
| 2026-04-21 20:48 | 21.27804 | 113.57604 | 36833 ft | 473 kts | 21° |
| 2026-04-21 20:48 | 21.33832 | 113.60497 | 36834 ft | 473 kts | 21° |
| 2026-04-21 20:49 | 21.39826 | 113.63375 | 36834 ft | 472 kts | 20° |
| 2026-04-21 20:49 | 21.45847 | 113.66268 | 36832 ft | 473 kts | 21° |
| 2026-04-21 20:50 | 21.51861 | 113.69162 | 36834 ft | 473 kts | 21° |
| 2026-04-21 20:50 | 21.57874 | 113.72057 | 36834 ft | 474 kts | 21° |
| 2026-04-21 20:51 | 21.63915 | 113.74969 | 36834 ft | 475 kts | 20° |
| 2026-04-21 20:51 | 21.69951 | 113.77879 | 36834 ft | 474 kts | 20° |
| 2026-04-21 20:52 | 21.75968 | 113.80784 | 36834 ft | 474 kts | 20° |
| 2026-04-21 20:52 | 21.81964 | 113.83682 | 36835 ft | 474 kts | 20° |
| 2026-04-21 20:53 | 21.88006 | 113.86603 | 36836 ft | 475 kts | 20° |
| 2026-04-21 20:53 | 21.94042 | 113.89523 | 36837 ft | 476 kts | 20° |
| 2026-04-21 20:54 | 22.00067 | 113.92440 | 36837 ft | 477 kts | 20° |
| 2026-04-21 20:54 | 22.06134 | 113.95375 | 36839 ft | 477 kts | 20° |
| 2026-04-21 20:55 | 22.12182 | 113.98301 | 36841 ft | 476 kts | 20° |
| 2026-04-21 20:55 | 22.18251 | 114.01244 | 36842 ft | 475 kts | 19° |
| 2026-04-21 20:56 | 22.24369 | 114.03813 | 36838 ft | 470 kts | 14° |
| 2026-04-21 20:56 | 22.30647 | 114.05859 | 36839 ft | 470 kts | 12° |
| 2026-04-21 20:57 | 22.36938 | 114.07833 | 36838 ft | 471 kts | 12° |
| 2026-04-21 20:57 | 22.43226 | 114.09830 | 36838 ft | 470 kts | 12° |
| 2026-04-21 20:58 | 22.49574 | 114.11147 | 36839 ft | 462 kts | 360° |
| 2026-04-21 20:58 | 22.55943 | 114.10959 | 36839 ft | 454 kts | 348° |
| 2026-04-21 20:59 | 22.62045 | 114.09335 | 36837 ft | 447 kts | 336° |
| 2026-04-21 20:59 | 22.67697 | 114.06624 | 36828 ft | 445 kts | 331° |
| 2026-04-21 21:00 | 22.73280 | 114.03725 | 36830 ft | 445 kts | 331° |
| 2026-04-21 21:00 | 22.78880 | 114.00815 | 36825 ft | 445 kts | 331° |
| 2026-04-21 21:01 | 22.84453 | 113.97923 | 36818 ft | 444 kts | 331° |
| 2026-04-21 21:01 | 22.90048 | 113.95032 | 36824 ft | 443 kts | 331° |
| 2026-04-21 21:02 | 22.95581 | 113.92165 | 36821 ft | 443 kts | 331° |
| 2026-04-21 21:02 | 23.01146 | 113.89262 | 36825 ft | 442 kts | 331° |
| 2026-04-21 21:03 | 23.06698 | 113.86366 | 36836 ft | 443 kts | 332° |
| 2026-04-21 21:03 | 23.12449 | 113.83815 | 36837 ft | 445 kts | 336° |
| 2026-04-21 21:04 | 23.18248 | 113.81545 | 36839 ft | 445 kts | 336° |
| 2026-04-21 21:04 | 23.24075 | 113.79262 | 36837 ft | 445 kts | 336° |
| 2026-04-21 21:05 | 23.29910 | 113.76968 | 36841 ft | 446 kts | 336° |
| 2026-04-21 21:05 | 23.35773 | 113.74657 | 36835 ft | 446 kts | 336° |
| 2026-04-21 21:06 | 23.41613 | 113.72354 | 36837 ft | 446 kts | 336° |
| 2026-04-21 21:06 | 23.47453 | 113.70049 | 36832 ft | 445 kts | 336° |
| 2026-04-21 21:07 | 23.53282 | 113.67743 | 36828 ft | 445 kts | 336° |
| 2026-04-21 21:07 | 23.59089 | 113.65445 | 36830 ft | 447 kts | 336° |
| 2026-04-21 21:08 | 23.64929 | 113.63131 | 36834 ft | 445 kts | 336° |
| 2026-04-21 21:08 | 23.70778 | 113.60809 | 36837 ft | 446 kts | 336° |
| 2026-04-21 21:09 | 23.76622 | 113.58489 | 36840 ft | 446 kts | 336° |
| 2026-04-21 21:09 | 23.82456 | 113.56170 | 36848 ft | 447 kts | 336° |
| 2026-04-21 21:10 | 23.88298 | 113.53842 | 36850 ft | 447 kts | 336° |
| 2026-04-21 21:10 | 23.94155 | 113.51505 | 36859 ft | 448 kts | 336° |
| 2026-04-21 21:11 | 23.99998 | 113.49164 | 36868 ft | 448 kts | 336° |
| 2026-04-21 21:11 | 24.05864 | 113.46812 | 36980 ft | 453 kts | 336° |
| 2026-04-21 21:12 | 24.08820 | 113.45637 | 37300 ft | 452 kts | 337° |
| 2026-04-21 21:12 | 24.11862 | 113.44576 | 37667 ft | 452 kts | 340° |
| 2026-04-21 21:12 | 24.14927 | 113.43700 | 37963 ft | 453 kts | 342° |
| 2026-04-21 21:12 | 24.18046 | 113.42996 | 38221 ft | 455 kts | 345° |
| 2026-04-21 21:13 | 24.21188 | 113.42473 | 38483 ft | 457 kts | 348° |
| 2026-04-21 21:13 | 24.24367 | 113.42130 | 38719 ft | 460 kts | 351° |
| 2026-04-21 21:13 | 24.27549 | 113.41968 | 38832 ft | 463 kts | 354° |
| 2026-04-21 21:13 | 24.30777 | 113.41988 | 38840 ft | 465 kts | 356° |
| 2026-04-21 21:14 | 24.37259 | 113.42152 | 38857 ft | 466 kts | 356° |
| 2026-04-21 21:14 | 24.43741 | 113.42323 | 38876 ft | 465 kts | 356° |
| 2026-04-21 21:15 | 24.50235 | 113.42530 | 38894 ft | 465 kts | 356° |
| 2026-04-21 21:15 | 24.56691 | 113.42727 | 38893 ft | 465 kts | 356° |
| 2026-04-21 21:16 | 24.63162 | 113.42918 | 38887 ft | 466 kts | 356° |
| 2026-04-21 21:16 | 24.69672 | 113.43105 | 38871 ft | 466 kts | 356° |
| 2026-04-21 21:17 | 24.76158 | 113.43288 | 38860 ft | 466 kts | 356° |
| 2026-04-21 21:17 | 24.82650 | 113.43471 | 38858 ft | 467 kts | 356° |
| 2026-04-21 21:18 | 24.89151 | 113.43656 | 38864 ft | 467 kts | 356° |
| 2026-04-21 21:18 | 24.95681 | 113.43842 | 38873 ft | 468 kts | 356° |
| 2026-04-21 21:19 | 25.02164 | 113.44027 | 38884 ft | 468 kts | 356° |
| 2026-04-21 21:19 | 25.08676 | 113.44215 | 38881 ft | 467 kts | 356° |
| 2026-04-21 21:20 | 25.15179 | 113.44401 | 38886 ft | 466 kts | 356° |
| 2026-04-21 21:20 | 25.21675 | 113.44584 | 38877 ft | 467 kts | 356° |
| 2026-04-21 21:21 | 25.28172 | 113.44769 | 38884 ft | 466 kts | 356° |
| 2026-04-21 21:21 | 25.34668 | 113.44954 | 38883 ft | 467 kts | 356° |
| 2026-04-21 21:22 | 25.41167 | 113.45137 | 38893 ft | 467 kts | 356° |
| 2026-04-21 21:22 | 25.47625 | 113.45321 | 38889 ft | 465 kts | 355° |
| 2026-04-21 21:23 | 25.54108 | 113.45506 | 38892 ft | 464 kts | 355° |
| 2026-04-21 21:23 | 25.60574 | 113.45687 | 38893 ft | 464 kts | 355° |
| 2026-04-21 21:24 | 25.67005 | 113.45869 | 38894 ft | 463 kts | 355° |
| 2026-04-21 21:24 | 25.73450 | 113.46046 | 38896 ft | 463 kts | 355° |
| 2026-04-21 21:25 | 25.79868 | 113.46217 | 38883 ft | 462 kts | 355° |
| 2026-04-21 21:25 | 25.86323 | 113.46395 | 38884 ft | 463 kts | 355° |
| 2026-04-21 21:26 | 25.92778 | 113.46615 | 38868 ft | 463 kts | 355° |
| 2026-04-21 21:26 | 25.99213 | 113.46835 | 38868 ft | 462 kts | 355° |
| 2026-04-21 21:27 | 26.05625 | 113.47044 | 38855 ft | 461 kts | 355° |
| 2026-04-21 21:27 | 26.12060 | 113.47243 | 38858 ft | 462 kts | 355° |
| 2026-04-21 21:28 | 26.18473 | 113.47443 | 38861 ft | 464 kts | 355° |
| 2026-04-21 21:29 | 26.28178 | 113.47746 | 38858 ft | 465 kts | 355° |
| 2026-04-21 21:29 | 26.34637 | 113.47947 | 38855 ft | 465 kts | 355° |
| 2026-04-21 21:30 | 26.41131 | 113.48148 | 38852 ft | 467 kts | 356° |
| 2026-04-21 21:30 | 26.47617 | 113.48350 | 38847 ft | 467 kts | 356° |
| 2026-04-21 21:31 | 26.54120 | 113.48554 | 38846 ft | 467 kts | 356° |
| 2026-04-21 21:31 | 26.60641 | 113.48758 | 38844 ft | 469 kts | 356° |
| 2026-04-21 21:32 | 26.67167 | 113.48962 | 38849 ft | 469 kts | 356° |
| 2026-04-21 21:32 | 26.73716 | 113.49165 | 38853 ft | 470 kts | 356° |
| 2026-04-21 21:33 | 26.80253 | 113.49368 | 38851 ft | 471 kts | 356° |
| 2026-04-21 21:33 | 26.86831 | 113.49575 | 38853 ft | 470 kts | 356° |
| 2026-04-21 21:34 | 26.93350 | 113.49776 | 38843 ft | 472 kts | 356° |
| 2026-04-21 21:34 | 26.99934 | 113.49980 | 38857 ft | 472 kts | 358° |
| 2026-04-21 21:35 | 27.06439 | 113.51591 | 38851 ft | 491 kts | 20° |
| 2026-04-21 21:35 | 27.12301 | 113.55669 | 38850 ft | 499 kts | 31° |
| 2026-04-21 21:36 | 27.17924 | 113.60286 | 38843 ft | 502 kts | 32° |
| 2026-04-21 21:36 | 27.23554 | 113.64949 | 38845 ft | 501 kts | 32° |
| 2026-04-21 21:37 | 27.29168 | 113.69603 | 38837 ft | 503 kts | 32° |
| 2026-04-21 21:37 | 27.34806 | 113.74277 | 39147 ft | 504 kts | 32° |
| 2026-04-21 21:37 | 27.37617 | 113.76626 | 39479 ft | 503 kts | 32° |
| 2026-04-21 21:38 | 27.40453 | 113.78820 | 39744 ft | 497 kts | 24° |
| 2026-04-21 21:38 | 27.43591 | 113.80411 | 39960 ft | 487 kts | 12° |
| 2026-04-21 21:38 | 27.46853 | 113.81269 | 40154 ft | 478 kts | 2° |
| 2026-04-21 21:38 | 27.50167 | 113.81715 | 40261 ft | 477 kts | 359° |
| 2026-04-21 21:39 | 27.53472 | 113.81956 | 40376 ft | 476 kts | 355° |
| 2026-04-21 21:39 | 27.56783 | 113.82046 | 40563 ft | 476 kts | 354° |
| 2026-04-21 21:39 | 27.60063 | 113.82106 | 40738 ft | 476 kts | 354° |
| 2026-04-21 21:40 | 27.66722 | 113.82215 | 40832 ft | 478 kts | 354° |
| 2026-04-21 21:40 | 27.73362 | 113.82336 | 40835 ft | 478 kts | 354° |
| 2026-04-21 21:41 | 27.80002 | 113.82456 | 40836 ft | 480 kts | 354° |
| 2026-04-21 21:41 | 27.86693 | 113.82592 | 40839 ft | 481 kts | 354° |
| 2026-04-21 21:42 | 27.93406 | 113.82755 | 40838 ft | 480 kts | 354° |
| 2026-04-21 21:42 | 28.00063 | 113.82909 | 40841 ft | 479 kts | 351° |
| 2026-04-21 21:43 | 28.06639 | 113.82143 | 40855 ft | 475 kts | 345° |
| 2026-04-21 21:43 | 28.13284 | 113.81491 | 40853 ft | 486 kts | 356° |
| 2026-04-21 21:44 | 28.20012 | 113.82617 | 40862 ft | 494 kts | 3° |
| 2026-04-21 21:44 | 28.26810 | 113.83978 | 40866 ft | 495 kts | 2° |
| 2026-04-21 21:45 | 28.33630 | 113.85301 | 40873 ft | 497 kts | 2° |
| 2026-04-21 21:45 | 28.40446 | 113.86597 | 40871 ft | 495 kts | 2° |
| 2026-04-21 21:46 | 28.47251 | 113.87880 | 40867 ft | 497 kts | 2° |
| 2026-04-21 21:46 | 28.54075 | 113.89166 | 40871 ft | 497 kts | 2° |
| 2026-04-21 21:47 | 28.60903 | 113.90450 | 40876 ft | 498 kts | 2° |
| 2026-04-21 21:47 | 28.67716 | 113.91734 | 40882 ft | 500 kts | 2° |
| 2026-04-21 21:48 | 28.74603 | 113.93037 | 40883 ft | 500 kts | 2° |
| 2026-04-21 21:48 | 28.81477 | 113.94338 | 40891 ft | 502 kts | 2° |
| 2026-04-21 21:49 | 28.88360 | 113.95640 | 40886 ft | 501 kts | 2° |
| 2026-04-21 21:49 | 28.95262 | 113.96948 | 40891 ft | 504 kts | 2° |
| 2026-04-21 21:50 | 29.02201 | 113.98264 | 40885 ft | 506 kts | 2° |
| 2026-04-21 21:50 | 29.09099 | 113.99580 | 40885 ft | 505 kts | 2° |
| 2026-04-21 21:51 | 29.16037 | 114.00899 | 40887 ft | 505 kts | 2° |
| 2026-04-21 21:51 | 29.22971 | 114.02223 | 40894 ft | 506 kts | 2° |
| 2026-04-21 21:52 | 29.29916 | 114.03552 | 40898 ft | 504 kts | 2° |
| 2026-04-21 21:52 | 29.36829 | 114.04871 | 40895 ft | 505 kts | 2° |
| 2026-04-21 21:53 | 29.43785 | 114.06203 | 40891 ft | 506 kts | 2° |
| 2026-04-21 21:53 | 29.50707 | 114.07529 | 40897 ft | 507 kts | 2° |
| 2026-04-21 21:54 | 29.57669 | 114.08867 | 40901 ft | 506 kts | 2° |
| 2026-04-21 21:54 | 29.64633 | 114.10207 | 40906 ft | 505 kts | 2° |
| 2026-04-21 21:55 | 29.71567 | 114.11541 | 40904 ft | 507 kts | 2° |
| 2026-04-21 21:55 | 29.78542 | 114.12884 | 40908 ft | 508 kts | 2° |
| 2026-04-21 21:56 | 29.85521 | 114.14230 | 40921 ft | 508 kts | 2° |
| 2026-04-21 21:56 | 29.92482 | 114.15582 | 40916 ft | 507 kts | 2° |
| 2026-04-21 21:57 | 29.99449 | 114.16927 | 40925 ft | 507 kts | 1° |
| 2026-04-21 21:57 | 30.06393 | 114.18275 | 40929 ft | 507 kts | 1° |
| 2026-04-21 21:58 | 30.13383 | 114.19628 | 40928 ft | 508 kts | 2° |
| 2026-04-21 21:58 | 30.20341 | 114.20985 | 40932 ft | 506 kts | 2° |
| 2026-04-21 21:59 | 30.27230 | 114.22327 | 40926 ft | 505 kts | 1° |
| 2026-04-21 21:59 | 30.34215 | 114.23683 | 40930 ft | 506 kts | 2° |
| 2026-04-21 22:00 | 30.41131 | 114.25037 | 40928 ft | 505 kts | 1° |
| 2026-04-21 22:00 | 30.48051 | 114.26389 | 40926 ft | 505 kts | 2° |
| 2026-04-21 22:01 | 30.54994 | 114.27746 | 40919 ft | 506 kts | 2° |
| 2026-04-21 22:01 | 30.61974 | 114.29115 | 40924 ft | 505 kts | 2° |
| 2026-04-21 22:02 | 30.68876 | 114.30473 | 40927 ft | 503 kts | 2° |
| 2026-04-21 22:02 | 30.75753 | 114.31825 | 40920 ft | 503 kts | 2° |
| 2026-04-21 22:03 | 30.82687 | 114.33186 | 40915 ft | 504 kts | 2° |
| 2026-04-21 22:03 | 30.89576 | 114.34543 | 40921 ft | 505 kts | 1° |
| 2026-04-21 22:04 | 30.96527 | 114.35914 | 40921 ft | 505 kts | 1° |
| 2026-04-21 22:04 | 31.03419 | 114.37277 | 40930 ft | 504 kts | 1° |
| 2026-04-21 22:05 | 31.10357 | 114.38644 | 40931 ft | 503 kts | 2° |
| 2026-04-21 22:05 | 31.17250 | 114.40003 | 40935 ft | 505 kts | 1° |
| 2026-04-21 22:06 | 31.24167 | 114.41367 | 40939 ft | 501 kts | 1° |
| 2026-04-21 22:06 | 31.31061 | 114.42716 | 40942 ft | 501 kts | 0° |
| 2026-04-21 22:07 | 31.37948 | 114.43617 | 40957 ft | 497 kts | 356° |
| 2026-04-21 22:07 | 31.44799 | 114.44257 | 40956 ft | 495 kts | 355° |
| 2026-04-21 22:08 | 31.51660 | 114.44886 | 40964 ft | 496 kts | 356° |
| 2026-04-21 22:08 | 31.58547 | 114.45527 | 40968 ft | 495 kts | 356° |
| 2026-04-21 22:09 | 31.65424 | 114.46159 | 40971 ft | 495 kts | 355° |
| 2026-04-21 22:09 | 31.72281 | 114.46803 | 40969 ft | 496 kts | 356° |
| 2026-04-21 22:10 | 31.79138 | 114.47476 | 40972 ft | 495 kts | 356° |
| 2026-04-21 22:10 | 31.85978 | 114.48135 | 40980 ft | 493 kts | 355° |
| 2026-04-21 22:11 | 31.92834 | 114.48779 | 40980 ft | 496 kts | 355° |
| 2026-04-21 22:11 | 31.99723 | 114.49426 | 40990 ft | 495 kts | 355° |
| 2026-04-21 22:12 | 32.06588 | 114.50073 | 40987 ft | 495 kts | 355° |
| 2026-04-21 22:12 | 32.13438 | 114.50717 | 40988 ft | 494 kts | 355° |
| 2026-04-21 22:13 | 32.20271 | 114.51355 | 40991 ft | 493 kts | 355° |
| 2026-04-21 22:13 | 32.27099 | 114.51990 | 40993 ft | 492 kts | 355° |
| 2026-04-21 22:14 | 32.33890 | 114.52631 | 40989 ft | 491 kts | 355° |
| 2026-04-21 22:14 | 32.40713 | 114.53313 | 40995 ft | 491 kts | 355° |
| 2026-04-21 22:15 | 32.47520 | 114.53985 | 40992 ft | 492 kts | 355° |
| 2026-04-21 22:15 | 32.54342 | 114.54649 | 40998 ft | 491 kts | 355° |
| 2026-04-21 22:16 | 32.61164 | 114.55306 | 41001 ft | 492 kts | 355° |
| 2026-04-21 22:16 | 32.67963 | 114.55969 | 40984 ft | 488 kts | 355° |
| 2026-04-21 22:17 | 32.74670 | 114.56617 | 40999 ft | 486 kts | 354° |
| 2026-04-21 22:17 | 32.81445 | 114.57272 | 41005 ft | 487 kts | 355° |
| 2026-04-21 22:18 | 32.88180 | 114.57919 | 40983 ft | 486 kts | 354° |
| 2026-04-21 22:18 | 32.94900 | 114.58575 | 40995 ft | 486 kts | 354° |
| 2026-04-21 22:19 | 33.01638 | 114.59229 | 40993 ft | 486 kts | 355° |
| 2026-04-21 22:19 | 33.08377 | 114.59879 | 40986 ft | 485 kts | 355° |
| 2026-04-21 22:20 | 33.15122 | 114.60545 | 40991 ft | 484 kts | 355° |
| 2026-04-21 22:20 | 33.21816 | 114.61197 | 40984 ft | 483 kts | 354° |
| 2026-04-21 22:21 | 33.28494 | 114.61844 | 40993 ft | 485 kts | 354° |
| 2026-04-21 22:21 | 33.35236 | 114.62505 | 40988 ft | 482 kts | 354° |
| 2026-04-21 22:22 | 33.41858 | 114.63154 | 40989 ft | 478 kts | 354° |
| 2026-04-21 22:22 | 33.48524 | 114.63799 | 40983 ft | 479 kts | 354° |
| 2026-04-21 22:23 | 33.55138 | 114.64442 | 40986 ft | 476 kts | 354° |
| 2026-04-21 22:23 | 33.61734 | 114.65077 | 40986 ft | 477 kts | 354° |
| 2026-04-21 22:24 | 33.68357 | 114.65725 | 40993 ft | 478 kts | 355° |
| 2026-04-21 22:24 | 33.74964 | 114.66371 | 40992 ft | 477 kts | 354° |
| 2026-04-21 22:25 | 33.81558 | 114.66997 | 40993 ft | 476 kts | 354° |
| 2026-04-21 22:25 | 33.88187 | 114.67614 | 40987 ft | 478 kts | 354° |
| 2026-04-21 22:26 | 33.94797 | 114.68228 | 40999 ft | 479 kts | 354° |
| 2026-04-21 22:26 | 34.01432 | 114.68851 | 40997 ft | 476 kts | 354° |
| 2026-04-21 22:27 | 34.08077 | 114.69472 | 40995 ft | 476 kts | 354° |
| 2026-04-21 22:27 | 34.14659 | 114.70078 | 40993 ft | 476 kts | 354° |
| 2026-04-21 22:28 | 34.21276 | 114.70694 | 40994 ft | 477 kts | 354° |
| 2026-04-21 22:28 | 34.27894 | 114.71307 | 40992 ft | 477 kts | 354° |
| 2026-04-21 22:29 | 34.34505 | 114.71952 | 40993 ft | 475 kts | 354° |
| 2026-04-21 22:29 | 34.41111 | 114.72611 | 40991 ft | 478 kts | 354° |
| 2026-04-21 22:30 | 34.47755 | 114.73260 | 40990 ft | 477 kts | 355° |
| 2026-04-21 22:30 | 34.54340 | 114.73899 | 40991 ft | 476 kts | 354° |
| 2026-04-21 22:31 | 34.60953 | 114.74535 | 40991 ft | 476 kts | 354° |
| 2026-04-21 22:31 | 34.67580 | 114.75166 | 40991 ft | 478 kts | 354° |
| 2026-04-21 22:32 | 34.74194 | 114.75826 | 40988 ft | 479 kts | 355° |
| 2026-04-21 22:32 | 34.80821 | 114.76492 | 40993 ft | 477 kts | 354° |
| 2026-04-21 22:33 | 34.87414 | 114.77136 | 40990 ft | 476 kts | 354° |
| 2026-04-21 22:33 | 34.94014 | 114.77776 | 40988 ft | 476 kts | 354° |
| 2026-04-21 22:34 | 35.00634 | 114.78413 | 40990 ft | 475 kts | 355° |
| 2026-04-21 22:34 | 35.07234 | 114.79050 | 40984 ft | 477 kts | 355° |
| 2026-04-21 22:35 | 35.13862 | 114.79695 | 40991 ft | 478 kts | 354° |
| 2026-04-21 22:35 | 35.20484 | 114.80338 | 40994 ft | 477 kts | 355° |
| 2026-04-21 22:36 | 35.30432 | 114.81306 | 40987 ft | 477 kts | 354° |
| 2026-04-21 22:36 | 35.37004 | 114.81949 | 40982 ft | 477 kts | 355° |
| 2026-04-21 22:37 | 35.43629 | 114.82595 | 40981 ft | 477 kts | 354° |
| 2026-04-21 22:37 | 35.50251 | 114.83240 | 40976 ft | 476 kts | 354° |
| 2026-04-21 22:38 | 35.56852 | 114.83884 | 40983 ft | 478 kts | 354° |
| 2026-04-21 22:38 | 35.63447 | 114.84535 | 40984 ft | 476 kts | 354° |
| 2026-04-21 22:39 | 35.70083 | 114.85184 | 40979 ft | 477 kts | 354° |
| 2026-04-21 22:39 | 35.76706 | 114.85834 | 40981 ft | 478 kts | 354° |
| 2026-04-21 22:40 | 35.83347 | 114.86485 | 40977 ft | 479 kts | 354° |
| 2026-04-21 22:40 | 35.89983 | 114.87145 | 40981 ft | 475 kts | 354° |
| 2026-04-21 22:41 | 35.96554 | 114.87791 | 40981 ft | 476 kts | 354° |
| 2026-04-21 22:41 | 36.03122 | 114.88434 | 40973 ft | 475 kts | 354° |
| 2026-04-21 22:42 | 36.09716 | 114.89081 | 40978 ft | 475 kts | 354° |
| 2026-04-21 22:42 | 36.16336 | 114.89726 | 40960 ft | 476 kts | 354° |
| 2026-04-21 22:43 | 36.22922 | 114.90369 | 40970 ft | 479 kts | 354° |
| 2026-04-21 22:43 | 36.29542 | 114.91224 | 40970 ft | 483 kts | 359° |
| 2026-04-21 22:44 | 36.36190 | 114.93014 | 40970 ft | 494 kts | 6° |
| 2026-04-21 22:44 | 36.42710 | 114.95835 | 40971 ft | 503 kts | 14° |
| 2026-04-21 22:45 | 36.49071 | 114.99579 | 40960 ft | 507 kts | 18° |
| 2026-04-21 22:45 | 36.55402 | 115.03552 | 40972 ft | 508 kts | 18° |
| 2026-04-21 22:46 | 36.61717 | 115.07510 | 40976 ft | 508 kts | 18° |
| 2026-04-21 22:46 | 36.68023 | 115.11451 | 40826 ft | 510 kts | 18° |
| 2026-04-21 22:47 | 36.71163 | 115.13412 | 40530 ft | 508 kts | 18° |
| 2026-04-21 22:47 | 36.74329 | 115.15389 | 40223 ft | 506 kts | 18° |
| 2026-04-21 22:47 | 36.77433 | 115.17336 | 39801 ft | 503 kts | 18° |
| 2026-04-21 22:47 | 36.80556 | 115.19289 | 39331 ft | 500 kts | 18° |
| 2026-04-21 22:48 | 36.83668 | 115.21240 | 38797 ft | 498 kts | 18° |
| 2026-04-21 22:48 | 36.86740 | 115.23168 | 38325 ft | 496 kts | 18° |
| 2026-04-21 22:48 | 36.89790 | 115.25082 | 37808 ft | 494 kts | 18° |
| 2026-04-21 22:48 | 36.92880 | 115.27025 | 37231 ft | 494 kts | 17° |
| 2026-04-21 22:49 | 36.95921 | 115.28942 | 36750 ft | 492 kts | 17° |
| 2026-04-21 22:49 | 36.98976 | 115.30866 | 36196 ft | 491 kts | 17° |
| 2026-04-21 22:49 | 37.02021 | 115.32782 | 35635 ft | 491 kts | 17° |
| 2026-04-21 22:49 | 37.05036 | 115.34682 | 35153 ft | 490 kts | 16° |
| 2026-04-21 22:50 | 37.08086 | 115.36606 | 34572 ft | 491 kts | 16° |
| 2026-04-21 22:50 | 37.11146 | 115.38536 | 34016 ft | 491 kts | 16° |
| 2026-04-21 22:50 | 37.14179 | 115.40453 | 33464 ft | 490 kts | 16° |
| 2026-04-21 22:50 | 37.17214 | 115.42369 | 32898 ft | 490 kts | 17° |
| 2026-04-21 22:51 | 37.20264 | 115.44292 | 32296 ft | 490 kts | 17° |
| 2026-04-21 22:51 | 37.23312 | 115.46217 | 31691 ft | 490 kts | 17° |
| 2026-04-21 22:51 | 37.26357 | 115.48147 | 31107 ft | 490 kts | 17° |
| 2026-04-21 22:51 | 37.29377 | 115.50064 | 30480 ft | 491 kts | 17° |
| 2026-04-21 22:52 | 37.32435 | 115.52007 | 29821 ft | 492 kts | 18° |
| 2026-04-21 22:52 | 37.35470 | 115.53934 | 29131 ft | 494 kts | 18° |
| 2026-04-21 22:52 | 37.38546 | 115.55893 | 28486 ft | 494 kts | 19° |
| 2026-04-21 22:52 | 37.41580 | 115.57833 | 27863 ft | 494 kts | 19° |
| 2026-04-21 22:53 | 37.44648 | 115.59791 | 27372 ft | 495 kts | 19° |
| 2026-04-21 22:53 | 37.47724 | 115.61756 | 26998 ft | 496 kts | 19° |
| 2026-04-21 22:53 | 37.50763 | 115.63703 | 26555 ft | 493 kts | 20° |
| 2026-04-21 22:53 | 37.53814 | 115.65662 | 26065 ft | 488 kts | 20° |
| 2026-04-21 22:54 | 37.56833 | 115.67598 | 25603 ft | 483 kts | 20° |
| 2026-04-21 22:54 | 37.59815 | 115.69508 | 25103 ft | 478 kts | 20° |
| 2026-04-21 22:54 | 37.62719 | 115.71376 | 24708 ft | 470 kts | 20° |
| 2026-04-21 22:54 | 37.65631 | 115.73248 | 24329 ft | 463 kts | 21° |
| 2026-04-21 22:55 | 37.68464 | 115.75064 | 23930 ft | 457 kts | 20° |
| 2026-04-21 22:55 | 37.71285 | 115.76878 | 23508 ft | 452 kts | 20° |
| 2026-04-21 22:55 | 37.74072 | 115.78670 | 23135 ft | 445 kts | 21° |
| 2026-04-21 22:55 | 37.76810 | 115.80436 | 22753 ft | 440 kts | 20° |
| 2026-04-21 22:56 | 37.79504 | 115.82170 | 22375 ft | 435 kts | 20° |
| 2026-04-21 22:56 | 37.82177 | 115.83888 | 21977 ft | 430 kts | 21° |
| 2026-04-21 22:56 | 37.84846 | 115.85609 | 21578 ft | 425 kts | 21° |
| 2026-04-21 22:56 | 37.87445 | 115.87286 | 21191 ft | 421 kts | 22° |
| 2026-04-21 22:57 | 37.90053 | 115.88971 | 20782 ft | 417 kts | 22° |
| 2026-04-21 22:57 | 37.92601 | 115.90620 | 20388 ft | 413 kts | 22° |
| 2026-04-21 22:57 | 37.95135 | 115.92259 | 19999 ft | 409 kts | 22° |
| 2026-04-21 22:57 | 37.97673 | 115.93900 | 19593 ft | 406 kts | 22° |
| 2026-04-21 22:58 | 38.00158 | 115.95515 | 19218 ft | 402 kts | 23° |
| 2026-04-21 22:58 | 38.02644 | 115.97125 | 18847 ft | 398 kts | 23° |
| 2026-04-21 22:58 | 38.05087 | 115.98714 | 18463 ft | 394 kts | 23° |
| 2026-04-21 22:58 | 38.07496 | 116.00280 | 18078 ft | 391 kts | 24° |
| 2026-04-21 22:59 | 38.09927 | 116.01859 | 17693 ft | 388 kts | 24° |
| 2026-04-21 22:59 | 38.12331 | 116.03419 | 17295 ft | 386 kts | 25° |
| 2026-04-21 22:59 | 38.14694 | 116.04959 | 16908 ft | 383 kts | 25° |
| 2026-04-21 22:59 | 38.17065 | 116.06506 | 16523 ft | 380 kts | 25° |
| 2026-04-21 23:00 | 38.19395 | 116.08025 | 16142 ft | 377 kts | 25° |
| 2026-04-21 23:00 | 38.21736 | 116.09556 | 15764 ft | 374 kts | 26° |
| 2026-04-21 23:00 | 38.24027 | 116.11052 | 15388 ft | 371 kts | 26° |
| 2026-04-21 23:00 | 38.26322 | 116.12556 | 15006 ft | 368 kts | 26° |
| 2026-04-21 23:01 | 38.28595 | 116.14043 | 14630 ft | 365 kts | 26° |
| 2026-04-21 23:01 | 38.30824 | 116.15500 | 14253 ft | 363 kts | 26° |
| 2026-04-21 23:01 | 38.33062 | 116.16966 | 13878 ft | 360 kts | 26° |
| 2026-04-21 23:01 | 38.35270 | 116.18414 | 13502 ft | 357 kts | 27° |
| 2026-04-21 23:02 | 38.37493 | 116.19873 | 13125 ft | 354 kts | 26° |
| 2026-04-21 23:02 | 38.39672 | 116.21303 | 12765 ft | 351 kts | 27° |
| 2026-04-21 23:02 | 38.41816 | 116.22711 | 12401 ft | 349 kts | 27° |
| 2026-04-21 23:02 | 38.43973 | 116.24130 | 12049 ft | 346 kts | 27° |
| 2026-04-21 23:03 | 38.46100 | 116.25530 | 11702 ft | 343 kts | 27° |
| 2026-04-21 23:03 | 38.48220 | 116.26923 | 11349 ft | 340 kts | 27° |
| 2026-04-21 23:03 | 38.50315 | 116.28300 | 10984 ft | 338 kts | 27° |
| 2026-04-21 23:03 | 38.52376 | 116.29655 | 10687 ft | 333 kts | 27° |
| 2026-04-21 23:04 | 38.54413 | 116.30995 | 10553 ft | 322 kts | 27° |
| 2026-04-21 23:04 | 38.56356 | 116.32274 | 10431 ft | 311 kts | 27° |
| 2026-04-21 23:04 | 38.58244 | 116.33519 | 10346 ft | 301 kts | 27° |
| 2026-04-21 23:04 | 38.60081 | 116.34731 | 10273 ft | 290 kts | 27° |
| 2026-04-21 23:05 | 38.61851 | 116.35899 | 10197 ft | 280 kts | 27° |
| 2026-04-21 23:05 | 38.63552 | 116.36987 | 10150 ft | 270 kts | 23° |
| 2026-04-21 23:05 | 38.65305 | 116.37788 | 10100 ft | 260 kts | 15° |
| 2026-04-21 23:05 | 38.67038 | 116.38251 | 10063 ft | 251 kts | 9° |
| 2026-04-21 23:06 | 38.68738 | 116.38566 | 10035 ft | 241 kts | 8° |
| 2026-04-21 23:06 | 38.70367 | 116.38848 | 9922 ft | 236 kts | 8° |
| 2026-04-21 23:06 | 38.72001 | 116.39133 | 9654 ft | 237 kts | 8° |
| 2026-04-21 23:06 | 38.73625 | 116.39418 | 9339 ft | 240 kts | 8° |
| 2026-04-21 23:07 | 38.75293 | 116.39711 | 9037 ft | 242 kts | 8° |
| 2026-04-21 23:07 | 38.76969 | 116.40008 | 8772 ft | 242 kts | 8° |
| 2026-04-21 23:07 | 38.78640 | 116.40303 | 8525 ft | 242 kts | 8° |
| 2026-04-21 23:07 | 38.80315 | 116.40599 | 8283 ft | 242 kts | 8° |
| 2026-04-21 23:08 | 38.81970 | 116.40892 | 8047 ft | 242 kts | 8° |
| 2026-04-21 23:08 | 38.83650 | 116.41190 | 7807 ft | 241 kts | 8° |
| 2026-04-21 23:08 | 38.85299 | 116.41482 | 7567 ft | 241 kts | 8° |
| 2026-04-21 23:08 | 38.86969 | 116.41779 | 7333 ft | 240 kts | 7° |
| 2026-04-21 23:09 | 38.88607 | 116.42070 | 7099 ft | 240 kts | 7° |
| 2026-04-21 23:09 | 38.90264 | 116.42363 | 6864 ft | 240 kts | 7° |
| 2026-04-21 23:09 | 38.91923 | 116.42656 | 6606 ft | 238 kts | 7° |
| 2026-04-21 23:09 | 38.93545 | 116.42943 | 6384 ft | 230 kts | 7° |
| 2026-04-21 23:10 | 38.95102 | 116.43218 | 6167 ft | 225 kts | 7° |
| 2026-04-21 23:10 | 38.96658 | 116.43493 | 5956 ft | 224 kts | 7° |
| 2026-04-21 23:10 | 38.98195 | 116.43765 | 5735 ft | 224 kts | 7° |
| 2026-04-21 23:10 | 38.99746 | 116.44039 | 5513 ft | 223 kts | 7° |
| 2026-04-21 23:11 | 39.01262 | 116.44306 | 5295 ft | 221 kts | 7° |
| 2026-04-21 23:11 | 39.02773 | 116.44576 | 5056 ft | 215 kts | 7° |
| 2026-04-21 23:11 | 39.04236 | 116.44838 | 4854 ft | 208 kts | 7° |
| 2026-04-21 23:11 | 39.05632 | 116.45086 | 4662 ft | 201 kts | 7° |
| 2026-04-21 23:12 | 39.06997 | 116.45392 | 4470 ft | 196 kts | 11° |
| 2026-04-21 23:12 | 39.08311 | 116.45782 | 4288 ft | 191 kts | 9° |
| 2026-04-21 23:12 | 39.09619 | 116.46004 | 4100 ft | 187 kts | 1° |
| 2026-04-21 23:12 | 39.10895 | 116.45985 | 3958 ft | 182 kts | 355° |
| 2026-04-21 23:13 | 39.12149 | 116.45853 | 3949 ft | 175 kts | 353° |
| 2026-04-21 23:13 | 39.13323 | 116.45697 | 3946 ft | 164 kts | 353° |
| 2026-04-21 23:13 | 39.14440 | 116.45537 | 3941 ft | 163 kts | 352° |
| 2026-04-21 23:13 | 39.15566 | 116.45367 | 3942 ft | 163 kts | 352° |
| 2026-04-21 23:14 | 39.16707 | 116.45189 | 3944 ft | 163 kts | 352° |
| 2026-04-21 23:14 | 39.17824 | 116.45011 | 3942 ft | 163 kts | 352° |
| 2026-04-21 23:14 | 39.18954 | 116.44829 | 3942 ft | 162 kts | 352° |
| 2026-04-21 23:14 | 39.20079 | 116.44646 | 3939 ft | 162 kts | 352° |
| 2026-04-21 23:15 | 39.21195 | 116.44463 | 3941 ft | 162 kts | 353° |
| 2026-04-21 23:15 | 39.22308 | 116.44282 | 3940 ft | 162 kts | 352° |
| 2026-04-21 23:15 | 39.23431 | 116.44099 | 3941 ft | 162 kts | 352° |
| 2026-04-21 23:15 | 39.24548 | 116.43918 | 3942 ft | 162 kts | 352° |
| 2026-04-21 23:16 | 39.25671 | 116.43736 | 3945 ft | 162 kts | 353° |
| 2026-04-21 23:16 | 39.26799 | 116.43555 | 3947 ft | 163 kts | 353° |
| 2026-04-21 23:16 | 39.27917 | 116.43375 | 3944 ft | 163 kts | 353° |
| 2026-04-21 23:16 | 39.29044 | 116.43196 | 3889 ft | 163 kts | 353° |
| 2026-04-21 23:17 | 39.30179 | 116.43016 | 3680 ft | 163 kts | 353° |
| 2026-04-21 23:17 | 39.31297 | 116.42839 | 3470 ft | 163 kts | 353° |
| 2026-04-21 23:17 | 39.32433 | 116.42660 | 3254 ft | 163 kts | 353° |
| 2026-04-21 23:17 | 39.33549 | 116.42484 | 3035 ft | 163 kts | 352° |
| 2026-04-21 23:18 | 39.34685 | 116.42306 | 2816 ft | 163 kts | 351° |
| 2026-04-21 23:18 | 39.35811 | 116.42128 | 2600 ft | 164 kts | 351° |
| 2026-04-21 23:18 | 39.36936 | 116.41952 | 2377 ft | 162 kts | 351° |
| 2026-04-21 23:18 | 39.38060 | 116.41775 | 2165 ft | 160 kts | 351° |
| 2026-04-21 23:19 | 39.39145 | 116.41605 | 1948 ft | 156 kts | 350° |
| 2026-04-21 23:19 | 39.40205 | 116.41438 | 1735 ft | 151 kts | 349° |
| 2026-04-21 23:19 | 39.41241 | 116.41275 | 1529 ft | 146 kts | 350° |
| 2026-04-21 23:19 | 39.42234 | 116.41119 | 1340 ft | 143 kts | 350° |
| 2026-04-21 23:20 | 39.43219 | 116.40962 | 1160 ft | 143 kts | 351° |
| 2026-04-21 23:20 | 39.44207 | 116.40808 | 971 ft | 142 kts | 351° |
| 2026-04-21 23:20 | 39.45188 | 116.40662 | 778 ft | 141 kts | 352° |
| 2026-04-21 23:20 | 39.46161 | 116.40500 | 584 ft | 140 kts | 351° |
| 2026-04-21 23:21 | 39.47127 | 116.40345 | 387 ft | 139 kts | 352° |
| 2026-04-21 23:21 | 39.48093 | 116.40196 | 202 ft | 139 kts | 353° |
| 2026-04-21 23:21 | 39.49044 | 116.40049 | 103 ft | 132 kts | 351° |
| 2026-04-21 23:21 | 39.49780 | 116.39929 | 100 ft | 80 kts | 352° |
| 2026-04-21 23:22 | 39.50202 | 116.39864 | 100 ft | 52 kts | 353° |
| 2026-04-21 23:22 | 39.50434 | 116.39835 | 100 ft | 26 kts | 2° |
| 2026-04-21 23:22 | 39.50609 | 116.39881 | 100 ft | 25 kts | 19° |
| 2026-04-21 23:22 | 39.50749 | 116.39948 | 100 ft | 16 kts | 19° |
| 2026-04-21 23:23 | 39.50856 | 116.39979 | 100 ft | 11 kts | 360° |
| 2026-04-21 23:23 | 39.50908 | 116.40026 | 100 ft | 9 kts | 73° |
| 2026-04-21 23:23 | 39.50869 | 116.40093 | 100 ft | 11 kts | 165° |
| 2026-04-21 23:23 | 39.50783 | 116.40108 | 100 ft | 13 kts | 172° |
| 2026-04-21 23:24 | 39.50690 | 116.40124 | 100 ft | 14 kts | 172° |
| 2026-04-21 23:24 | 39.50587 | 116.40140 | 100 ft | 15 kts | 173° |
| 2026-04-21 23:24 | 39.50480 | 116.40157 | 100 ft | 16 kts | 173° |
| 2026-04-21 23:24 | 39.50364 | 116.40175 | 100 ft | 16 kts | 173° |
| 2026-04-21 23:25 | 39.50246 | 116.40193 | 100 ft | 17 kts | 173° |
| 2026-04-21 23:25 | 39.50152 | 116.40209 | 100 ft | 10 kts | 168° |
| 2026-04-21 23:25 | 39.50116 | 116.40281 | 100 ft | 11 kts | 86° |
| 2026-04-21 23:25 | 39.50126 | 116.40391 | 100 ft | 12 kts | 83° |
| 2026-04-21 23:26 | 39.50137 | 116.40511 | 100 ft | 14 kts | 83° |
| 2026-04-21 23:26 | 39.50149 | 116.40642 | 100 ft | 15 kts | 82° |
| 2026-04-21 23:26 | 39.50162 | 116.40781 | 100 ft | 15 kts | 83° |
| 2026-04-21 23:26 | 39.50178 | 116.40888 | 100 ft | 10 kts | 58° |
| 2026-04-21 23:27 | 39.50243 | 116.40916 | 100 ft | 9 kts | 7° |
| 2026-04-21 23:27 | 39.50283 | 116.40974 | 100 ft | 9 kts | 76° |
| 2026-04-21 23:27 | 39.50293 | 116.41061 | 100 ft | 9 kts | 76° |
| 2026-04-21 23:27 | 39.50339 | 116.41106 | 100 ft | 8 kts | 14° |
| 2026-04-21 23:28 | 39.50382 | 116.41116 | 100 ft | 2 kts | 8° |
| 2026-04-21 23:28 | 39.50395 | 116.41119 | 100 ft | 1 kts | 8° |
| 2026-04-21 23:28 | 39.50400 | 116.41119 | 100 ft | 0 kts | 8° |